createdAt,value
2018-08-27T00:00:56.568Z,99.90
2018-08-27T00:03:25.439Z,99.90
2018-08-27T00:05:54.284Z,99.90
2018-08-27T00:08:23.315Z,99.90
2018-08-27T00:10:52.115Z,99.90
2018-08-27T00:13:20.938Z,99.90
2018-08-27T00:15:49.811Z,99.90
2018-08-27T00:18:18.626Z,99.90
2018-08-27T00:20:47.667Z,99.90
2018-08-27T00:23:16.478Z,99.90
2018-08-27T00:25:45.378Z,99.90
2018-08-27T00:28:14.218Z,99.90
2018-08-27T00:30:43.047Z,99.90
2018-08-27T00:33:12.118Z,99.90
2018-08-27T00:35:40.934Z,99.90
2018-08-27T00:38:09.740Z,99.90
2018-08-27T00:40:38.554Z,99.90
2018-08-27T00:43:07.415Z,99.90
2018-08-27T00:45:36.463Z,99.90
2018-08-27T00:48:05.325Z,99.90
2018-08-27T00:50:34.147Z,99.90
2018-08-27T00:53:02.971Z,99.90
2018-08-27T00:55:31.788Z,99.90
2018-08-27T00:58:00.663Z,99.90
2018-08-27T01:00:29.512Z,99.90
2018-08-27T01:02:58.340Z,99.90
2018-08-27T01:05:27.211Z,99.90
2018-08-27T01:07:56.135Z,99.90
2018-08-27T01:10:25.007Z,99.90
2018-08-27T01:12:53.850Z,99.90
2018-08-27T01:15:22.688Z,99.90
2018-08-27T01:17:51.568Z,99.90
2018-08-27T01:20:20.408Z,99.90
2018-08-27T01:22:49.231Z,99.90
2018-08-27T01:25:18.076Z,99.90
2018-08-27T01:27:46.935Z,99.90
2018-08-27T01:30:15.772Z,99.90
2018-08-27T01:32:44.602Z,99.90
2018-08-27T01:35:13.420Z,99.90
2018-08-27T01:37:42.288Z,99.90
2018-08-27T01:40:11.128Z,99.90
2018-08-27T01:42:39.947Z,99.90
2018-08-27T01:45:08.795Z,99.90
2018-08-27T01:47:37.644Z,99.90
2018-08-27T01:50:06.628Z,99.90
2018-08-27T01:52:35.447Z,99.90
2018-08-27T01:55:04.338Z,99.90
2018-08-27T01:57:33.219Z,99.90
2018-08-27T02:00:02.074Z,99.90
2018-08-27T02:02:30.920Z,99.90
2018-08-27T02:05:00.155Z,99.90
2018-08-27T02:07:29.099Z,99.90
2018-08-27T02:09:57.914Z,99.90
2018-08-27T02:12:26.707Z,99.90
2018-08-27T02:14:55.540Z,99.90
2018-08-27T02:17:24.462Z,99.90
2018-08-27T02:19:53.299Z,99.90
2018-08-27T02:22:22.091Z,99.90
2018-08-27T02:24:50.946Z,99.90
2018-08-27T02:27:19.844Z,99.90
2018-08-27T02:29:48.672Z,99.90
2018-08-27T02:32:17.495Z,99.90
2018-08-27T02:34:46.326Z,99.90
2018-08-27T02:37:15.247Z,99.90
2018-08-27T02:39:44.114Z,99.90
2018-08-27T02:42:12.965Z,99.90
2018-08-27T02:44:41.780Z,99.90
2018-08-27T02:47:10.721Z,99.90
2018-08-27T02:49:39.550Z,99.90
2018-08-27T02:52:08.391Z,99.90
2018-08-27T02:54:37.268Z,99.90
2018-08-27T02:57:06.216Z,99.90
2018-08-27T02:59:35.010Z,99.90
2018-08-27T03:02:03.863Z,99.90
2018-08-27T03:04:32.713Z,99.90
2018-08-27T03:07:01.651Z,99.90
2018-08-27T03:09:30.477Z,99.90
2018-08-27T03:11:59.282Z,99.90
2018-08-27T03:14:28.096Z,99.90
2018-08-27T03:16:57.008Z,99.90
2018-08-27T03:19:25.836Z,99.90
2018-08-27T03:21:54.666Z,99.90
2018-08-27T03:24:23.512Z,99.90
2018-08-27T03:26:52.338Z,99.90
2018-08-27T03:29:21.159Z,99.90
2018-08-27T03:31:49.979Z,99.90
2018-08-27T03:34:18.823Z,99.90
2018-08-27T03:36:47.711Z,99.90
2018-08-27T03:39:16.529Z,99.90
2018-08-27T03:41:45.357Z,99.90
2018-08-27T03:44:14.175Z,99.90
2018-08-27T03:46:43.078Z,99.90
2018-08-27T03:49:11.912Z,99.90
2018-08-27T03:51:40.726Z,99.90
2018-08-27T03:54:09.562Z,99.90
2018-08-27T03:56:38.428Z,99.90
2018-08-27T03:59:07.258Z,99.90
2018-08-27T04:01:36.088Z,99.90
2018-08-27T04:04:05.022Z,99.90
2018-08-27T04:06:33.925Z,99.90
2018-08-27T04:09:03.307Z,99.90
2018-08-27T04:11:34.045Z,99.90
2018-08-27T04:14:03.199Z,99.90
2018-08-27T04:16:32.130Z,99.90
2018-08-27T04:19:00.978Z,99.90
2018-08-27T04:21:29.804Z,99.90
2018-08-27T04:24:05.418Z,99.90
2018-08-27T04:26:34.348Z,99.90
2018-08-27T04:29:03.199Z,99.90
2018-08-27T04:31:32.027Z,99.90
2018-08-27T04:34:00.821Z,99.90
2018-08-27T04:36:29.697Z,99.90
2018-08-27T04:38:58.537Z,99.90
2018-08-27T04:41:27.400Z,99.90
2018-08-27T04:43:56.256Z,99.90
2018-08-27T04:46:25.148Z,99.90
2018-08-27T04:48:54.023Z,99.90
2018-08-27T04:51:22.869Z,99.90
2018-08-27T04:53:51.764Z,99.90
2018-08-27T04:56:20.716Z,99.90
2018-08-27T04:58:50.016Z,99.90
2018-08-27T05:01:19.036Z,99.90
2018-08-27T05:03:47.928Z,99.90
2018-08-27T05:06:16.807Z,99.90
2018-08-27T05:08:45.630Z,99.90
2018-08-27T05:11:14.459Z,99.90
2018-08-27T05:13:43.313Z,99.90
2018-08-27T05:16:12.148Z,99.90
2018-08-27T05:18:41.083Z,99.90
2018-08-27T05:21:09.919Z,99.90
2018-08-27T05:23:38.756Z,99.90
2018-08-27T05:26:07.610Z,99.90
2018-08-27T05:28:36.451Z,99.90
2018-08-27T05:31:05.483Z,99.90
2018-08-27T05:33:34.204Z,99.90
2018-08-27T05:36:03.095Z,99.90
2018-08-27T05:38:32.003Z,99.90
2018-08-27T05:41:00.841Z,99.90
2018-08-27T05:43:29.712Z,99.90
2018-08-27T05:45:58.619Z,99.90
2018-08-27T05:48:27.427Z,99.90
2018-08-27T05:50:56.266Z,99.90
2018-08-27T05:53:25.080Z,99.90
2018-08-27T05:55:54.021Z,99.90
2018-08-27T05:58:23.120Z,99.90
2018-08-27T06:00:52.239Z,99.90
2018-08-27T06:03:21.164Z,99.90
2018-08-27T06:05:52.087Z,99.90
2018-08-27T06:08:21.479Z,99.90
2018-08-27T06:10:50.319Z,99.90
2018-08-27T06:13:19.172Z,99.90
2018-08-27T06:15:47.995Z,99.90
2018-08-27T06:18:16.855Z,99.90
2018-08-27T06:20:45.690Z,99.90
2018-08-27T06:23:14.543Z,99.90
2018-08-27T06:25:43.418Z,99.90
2018-08-27T06:28:12.281Z,99.90
2018-08-27T06:30:41.136Z,99.90
2018-08-27T06:33:10.003Z,99.90
2018-08-27T06:35:38.838Z,99.90
2018-08-27T06:38:07.870Z,99.90
2018-08-27T06:40:36.659Z,99.90
2018-08-27T06:43:05.528Z,99.90
2018-08-27T06:45:34.382Z,99.90
2018-08-27T06:48:03.242Z,99.90
2018-08-27T06:50:32.127Z,99.90
2018-08-27T06:53:00.940Z,99.90
2018-08-27T06:55:29.833Z,99.90
2018-08-27T06:57:58.679Z,99.90
2018-08-27T07:00:27.515Z,99.90
2018-08-27T07:02:56.363Z,99.90
2018-08-27T07:05:25.215Z,99.90
2018-08-27T07:07:54.091Z,99.90
2018-08-27T07:10:22.938Z,99.90
2018-08-27T07:12:51.764Z,99.90
2018-08-27T07:15:21.138Z,99.90
2018-08-27T07:17:49.999Z,99.90
2018-08-27T07:20:18.990Z,99.90
2018-08-27T07:22:47.791Z,99.90
2018-08-27T07:25:16.632Z,99.90
2018-08-27T07:28:48.698Z,99.90
2018-08-27T07:31:17.562Z,99.80
2018-08-27T07:33:46.399Z,99.90
2018-08-27T07:36:15.325Z,99.90
2018-08-27T07:38:44.156Z,99.90
2018-08-27T07:41:12.992Z,99.60
2018-08-27T07:43:41.859Z,99.70
2018-08-27T07:46:10.704Z,99.90
2018-08-27T07:48:39.595Z,99.90
2018-08-27T07:51:08.517Z,99.90
2018-08-27T07:53:37.335Z,99.90
2018-08-27T07:56:06.247Z,99.90
2018-08-27T07:58:35.202Z,99.70
2018-08-27T08:01:04.011Z,99.90
2018-08-27T08:03:32.867Z,99.90
2018-08-27T08:06:01.801Z,99.90
2018-08-27T08:08:30.654Z,99.90
2018-08-27T08:10:59.503Z,99.90
2018-08-27T08:13:28.572Z,99.90
2018-08-27T08:15:58.370Z,99.90
2018-08-27T08:18:27.256Z,99.90
2018-08-27T08:20:56.154Z,99.90
2018-08-27T08:23:25.095Z,99.90
2018-08-27T08:25:53.995Z,99.90
2018-08-27T08:28:22.871Z,99.90
2018-08-27T08:30:51.820Z,99.90
2018-08-27T08:33:20.743Z,99.40
2018-08-27T08:35:49.545Z,99.90
2018-08-27T08:38:18.467Z,99.70
2018-08-27T08:40:47.818Z,99.50
2018-08-27T08:43:16.699Z,99.00
2018-08-27T08:45:45.606Z,98.20
2018-08-27T08:48:15.439Z,98.40
2018-08-27T08:50:44.318Z,99.20
2018-08-27T08:53:13.155Z,98.20
2018-08-27T08:55:42.042Z,98.20
2018-08-27T08:58:10.888Z,97.80
2018-08-27T09:00:39.781Z,95.30
2018-08-27T09:03:08.661Z,94.10
2018-08-27T09:05:37.556Z,94.90
2018-08-27T09:08:06.488Z,94.30
2018-08-27T09:10:35.363Z,95.40
2018-08-27T09:13:04.239Z,94.20
2018-08-27T09:15:33.100Z,94.30
2018-08-27T09:18:01.975Z,91.90
2018-08-27T09:20:30.811Z,93.70
2018-08-27T09:22:59.663Z,92.50
2018-08-27T09:25:28.764Z,94.00
2018-08-27T09:27:57.632Z,93.80
2018-08-27T09:30:26.452Z,93.10
2018-08-27T09:32:55.289Z,93.40
2018-08-27T09:35:24.155Z,92.50
2018-08-27T09:37:53.215Z,94.60
2018-08-27T09:40:22.059Z,93.60
2018-08-27T09:42:50.877Z,94.40
2018-08-27T09:45:19.802Z,92.10
2018-08-27T09:47:48.632Z,92.50
2018-08-27T09:50:17.488Z,93.30
2018-08-27T09:52:46.358Z,94.70
2018-08-27T09:55:15.448Z,95.20
2018-08-27T09:57:44.318Z,92.40
2018-08-27T10:00:17.843Z,92.60
2018-08-27T10:02:46.673Z,93.30
2018-08-27T10:05:15.535Z,93.10
2018-08-27T10:07:44.420Z,93.10
2018-08-27T10:10:13.257Z,93.50
2018-08-27T10:12:42.144Z,94.20
2018-08-27T10:15:11.028Z,91.70
2018-08-27T10:17:39.887Z,90.40
2018-08-27T10:20:08.927Z,92.00
2018-08-27T10:22:37.784Z,92.00
2018-08-27T10:25:06.711Z,92.30
2018-08-27T10:27:35.960Z,92.10
2018-08-27T10:30:07.120Z,91.90
2018-08-27T10:32:35.982Z,90.60
2018-08-27T10:35:04.887Z,91.70
2018-08-27T10:37:33.773Z,90.40
2018-08-27T10:40:02.698Z,91.30
2018-08-27T10:42:31.554Z,90.50
2018-08-27T10:45:00.595Z,90.20
2018-08-27T10:47:29.455Z,89.10
2018-08-27T10:49:58.379Z,87.70
2018-08-27T10:52:27.215Z,88.40
2018-08-27T10:54:56.108Z,90.00
2018-08-27T10:57:24.991Z,90.80
2018-08-27T10:59:53.836Z,89.90
2018-08-27T11:02:22.697Z,89.90
2018-08-27T11:04:51.532Z,88.90
2018-08-27T11:07:23.610Z,87.00
2018-08-27T11:09:53.802Z,90.30
2018-08-27T11:12:22.785Z,90.90
2018-08-27T11:14:51.909Z,89.10
2018-08-27T11:17:21.711Z,88.90
2018-08-27T11:19:50.761Z,88.50
2018-08-27T11:22:19.557Z,87.10
2018-08-27T11:24:48.419Z,88.80
2018-08-27T11:27:17.275Z,82.70
2018-08-27T11:29:46.167Z,88.00
2018-08-27T11:32:15.046Z,83.40
2018-08-27T11:34:43.906Z,82.00
2018-08-27T11:37:12.789Z,83.90
2018-08-27T11:39:41.647Z,86.10
2018-08-27T11:42:10.512Z,84.90
2018-08-27T11:44:39.377Z,77.70
2018-08-27T11:47:08.275Z,81.80
2018-08-27T11:49:37.154Z,81.50
2018-08-27T11:52:06.303Z,82.30
2018-08-27T11:54:35.174Z,80.70
2018-08-27T11:57:04.166Z,80.40
2018-08-27T11:59:32.971Z,77.00
2018-08-27T12:02:01.913Z,75.90
2018-08-27T12:04:30.848Z,79.60
2018-08-27T12:06:59.715Z,71.10
2018-08-27T12:09:28.520Z,72.60
2018-08-27T12:11:57.372Z,73.50
2018-08-27T12:14:26.251Z,70.70
2018-08-27T12:16:55.177Z,76.60
2018-08-27T12:19:23.968Z,66.90
2018-08-27T12:21:52.923Z,70.40
2018-08-27T12:24:21.899Z,60.20
2018-08-27T12:26:50.752Z,63.60
2018-08-27T12:29:19.651Z,67.10
2018-08-27T12:31:48.514Z,63.40
2018-08-27T12:34:17.370Z,65.30
2018-08-27T12:36:46.235Z,63.80
2018-08-27T12:39:15.148Z,62.30
2018-08-27T12:41:43.998Z,62.80
2018-08-27T12:44:12.860Z,60.30
2018-08-27T12:46:41.757Z,56.70
2018-08-27T12:49:10.611Z,58.30
2018-08-27T12:51:39.452Z,58.50
2018-08-27T12:54:08.295Z,60.80
2018-08-27T12:56:37.139Z,56.80
2018-08-27T12:59:06.089Z,54.90
2018-08-27T13:01:35.087Z,53.80
2018-08-27T13:04:03.923Z,55.70
2018-08-27T13:06:32.788Z,52.20
2018-08-27T13:09:01.637Z,52.80
2018-08-27T13:11:30.603Z,52.20
2018-08-27T13:13:59.364Z,52.80
2018-08-27T13:16:28.210Z,51.20
2018-08-27T13:18:57.231Z,53.20
2018-08-27T13:21:26.559Z,54.50
2018-08-27T13:23:55.872Z,50.90
2018-08-27T13:26:24.787Z,52.10
2018-08-27T13:28:53.743Z,54.50
2018-08-27T13:31:22.761Z,51.00
2018-08-27T13:33:51.560Z,50.10
2018-08-27T13:36:20.417Z,52.30
2018-08-27T13:38:49.263Z,50.00
2018-08-27T13:41:18.111Z,48.70
2018-08-27T13:43:46.967Z,47.80
2018-08-27T13:46:15.855Z,50.40
2018-08-27T13:48:44.717Z,51.10
2018-08-27T13:51:13.563Z,49.30
2018-08-27T13:53:42.477Z,48.90
2018-08-27T13:56:11.355Z,49.00
2018-08-27T13:58:40.453Z,51.10
2018-08-27T14:01:09.291Z,47.60
2018-08-27T14:03:38.140Z,48.70
2018-08-27T14:06:07.033Z,46.70
2018-08-27T14:08:35.893Z,47.20
2018-08-27T14:11:04.772Z,47.00
2018-08-27T14:13:33.884Z,48.70
2018-08-27T14:16:02.772Z,49.20
2018-08-27T14:18:31.651Z,48.00
2018-08-27T14:21:00.522Z,46.80
2018-08-27T14:23:29.456Z,46.80
2018-08-27T14:25:58.391Z,46.50
2018-08-27T14:28:27.195Z,47.00
2018-08-27T14:30:56.064Z,45.30
2018-08-27T14:33:24.916Z,46.20
2018-08-27T14:35:53.804Z,47.10
2018-08-27T14:38:22.663Z,46.30
2018-08-27T14:40:51.521Z,49.40
2018-08-27T14:43:20.367Z,46.20
2018-08-27T14:45:49.225Z,46.90
2018-08-27T14:48:18.250Z,46.00
2018-08-27T14:50:46.946Z,46.60
2018-08-27T14:53:15.775Z,47.00
2018-08-27T14:55:44.599Z,46.10
2018-08-27T14:58:13.438Z,46.00
2018-08-27T15:00:46.868Z,46.40
2018-08-27T15:03:15.715Z,47.50
2018-08-27T15:05:44.710Z,50.40
2018-08-27T15:08:13.567Z,48.10
2018-08-27T15:10:42.391Z,49.10
2018-08-27T15:13:11.248Z,49.80
2018-08-27T15:15:40.167Z,49.60
2018-08-27T15:18:09.015Z,53.20
2018-08-27T15:20:37.856Z,49.00
2018-08-27T15:23:06.924Z,48.10
2018-08-27T15:25:35.791Z,50.60
2018-08-27T15:28:04.913Z,51.40
2018-08-27T15:30:33.856Z,52.40
2018-08-27T15:33:02.649Z,51.30
2018-08-27T15:35:31.509Z,51.60
2018-08-27T15:38:00.403Z,54.30
2018-08-27T15:40:29.272Z,52.50
2018-08-27T15:42:58.165Z,53.10
2018-08-27T15:45:31.559Z,51.80
2018-08-27T15:48:00.412Z,54.90
2018-08-27T15:50:29.291Z,55.70
2018-08-27T15:52:58.192Z,54.10
2018-08-27T15:55:27.051Z,55.20
2018-08-27T15:57:55.908Z,54.00
2018-08-27T16:00:24.788Z,53.20
2018-08-27T16:02:53.610Z,53.40
2018-08-27T16:05:22.503Z,55.10
2018-08-27T16:07:51.375Z,54.00
2018-08-27T16:10:20.323Z,53.50
2018-08-27T16:12:49.176Z,55.50
2018-08-27T16:15:18.059Z,54.60
2018-08-27T16:17:46.979Z,54.30
2018-08-27T16:20:15.827Z,54.30
2018-08-27T16:22:44.699Z,55.20
2018-08-27T16:25:13.584Z,54.70
2018-08-27T16:27:42.476Z,54.90
2018-08-27T16:30:12.709Z,55.90
2018-08-27T16:32:41.779Z,55.90
2018-08-27T16:35:10.724Z,56.20
2018-08-27T16:37:39.716Z,55.60
2018-08-27T16:40:08.615Z,55.30
2018-08-27T16:42:37.470Z,56.90
2018-08-27T16:45:06.405Z,56.10
2018-08-27T16:47:35.299Z,55.70
2018-08-27T16:50:04.255Z,56.20
2018-08-27T16:52:33.122Z,57.00
2018-08-27T16:55:02.227Z,57.00
2018-08-27T16:57:31.115Z,57.50
2018-08-27T17:00:00.055Z,57.60
2018-08-27T17:02:28.929Z,58.20
2018-08-27T17:04:57.785Z,57.60
2018-08-27T17:07:26.644Z,58.40
2018-08-27T17:09:55.552Z,58.90
2018-08-27T17:12:24.335Z,59.10
2018-08-27T17:14:53.427Z,58.90
2018-08-27T17:17:22.304Z,60.20
2018-08-27T17:19:51.220Z,59.40
2018-08-27T17:22:20.084Z,59.40
2018-08-27T17:24:48.949Z,63.20
2018-08-27T17:27:17.852Z,69.70
2018-08-27T17:29:46.739Z,71.90
2018-08-27T17:32:15.880Z,74.80
2018-08-27T17:34:44.733Z,74.80
2018-08-27T17:37:13.637Z,77.40
2018-08-27T17:39:42.575Z,78.00
2018-08-27T17:42:12.189Z,79.90
2018-08-27T17:44:41.198Z,81.20
2018-08-27T17:47:10.118Z,82.80
2018-08-27T17:49:38.968Z,85.40
2018-08-27T17:52:07.847Z,85.80
2018-08-27T17:54:36.718Z,87.90
2018-08-27T17:57:05.590Z,88.30
2018-08-27T17:59:34.472Z,89.10
2018-08-27T18:02:03.408Z,90.70
2018-08-27T18:04:32.856Z,91.40
2018-08-27T18:07:01.727Z,91.90
2018-08-27T18:09:30.597Z,92.10
2018-08-27T18:11:59.499Z,92.80
2018-08-27T18:14:28.350Z,93.40
2018-08-27T18:16:57.276Z,94.30
2018-08-27T18:19:26.097Z,94.80
2018-08-27T18:21:54.908Z,94.70
2018-08-27T18:24:23.779Z,95.50
2018-08-27T18:26:52.631Z,94.70
2018-08-27T18:29:21.470Z,95.30
2018-08-27T18:31:50.837Z,95.10
2018-08-27T18:34:19.716Z,95.30
2018-08-27T18:36:49.406Z,95.30
2018-08-27T18:39:19.616Z,96.30
2018-08-27T18:41:48.460Z,97.20
2018-08-27T18:44:18.576Z,97.50
2018-08-27T18:46:47.462Z,97.90
2018-08-27T18:49:16.361Z,98.40
2018-08-27T18:51:45.330Z,97.80
2018-08-27T18:54:14.100Z,98.40
2018-08-27T18:56:42.956Z,98.90
2018-08-27T18:59:11.835Z,99.20
2018-08-27T19:01:42.819Z,98.90
2018-08-27T19:04:12.020Z,98.90
2018-08-27T19:06:41.712Z,99.60
2018-08-27T19:09:10.624Z,99.60
2018-08-27T19:11:40.440Z,99.70
2018-08-27T19:14:10.206Z,99.70
2018-08-27T19:16:39.539Z,99.90
2018-08-27T19:19:08.387Z,99.80
2018-08-27T19:21:37.239Z,99.40
2018-08-27T19:24:06.242Z,99.80
2018-08-27T19:26:35.066Z,99.40
2018-08-27T19:29:05.094Z,99.90
2018-08-27T19:31:33.937Z,99.90
2018-08-27T19:34:04.180Z,99.90
2018-08-27T19:36:33.037Z,99.90
2018-08-27T19:39:04.967Z,99.90
2018-08-27T19:41:34.138Z,99.90
2018-08-27T19:44:03.122Z,99.90
2018-08-27T19:46:31.972Z,99.90
2018-08-27T19:49:00.816Z,99.90
2018-08-27T19:51:29.735Z,99.90
2018-08-27T19:53:58.598Z,99.90
2018-08-27T19:56:27.500Z,99.90
2018-08-27T19:58:56.319Z,99.90
2018-08-27T20:01:26.216Z,99.90
2018-08-27T20:03:55.691Z,99.90
2018-08-27T20:06:24.591Z,99.90
2018-08-27T20:08:53.442Z,99.90
2018-08-27T20:11:23.186Z,99.90
2018-08-27T20:13:52.043Z,99.90
2018-08-27T20:16:21.017Z,99.90
2018-08-27T20:18:49.915Z,99.90
2018-08-27T20:21:18.805Z,99.90
2018-08-27T20:23:47.644Z,99.90
2018-08-27T20:26:16.563Z,99.90
2018-08-27T20:28:45.335Z,99.90
2018-08-27T20:31:14.219Z,99.90
2018-08-27T20:33:43.133Z,99.90
2018-08-27T20:36:12.019Z,99.90
2018-08-27T20:38:40.888Z,99.90
2018-08-27T20:41:09.740Z,99.90
2018-08-27T20:43:38.575Z,99.90
2018-08-27T20:46:08.628Z,99.90
2018-08-27T20:48:37.555Z,99.90
2018-08-27T20:51:06.391Z,99.90
2018-08-27T20:53:35.274Z,99.90
2018-08-27T20:56:04.223Z,99.90
2018-08-27T20:58:33.070Z,99.90
2018-08-27T21:01:01.946Z,99.90
2018-08-27T21:03:30.771Z,99.90
2018-08-27T21:05:59.606Z,99.90
2018-08-27T21:08:28.426Z,99.90
2018-08-27T21:10:57.791Z,99.90
2018-08-27T21:13:26.671Z,99.90
2018-08-27T21:15:55.567Z,99.90
2018-08-27T21:18:24.458Z,99.90
2018-08-27T21:20:53.375Z,99.90
2018-08-27T21:23:22.292Z,99.90
2018-08-27T21:25:51.090Z,99.90
2018-08-27T21:28:19.906Z,99.90
2018-08-27T21:30:48.734Z,99.90
2018-08-27T21:33:17.572Z,99.90
2018-08-27T21:35:46.436Z,99.90
2018-08-27T21:38:15.307Z,99.90
2018-08-27T21:40:44.136Z,99.90
2018-08-27T21:43:12.971Z,99.90
2018-08-27T21:45:41.798Z,99.90
2018-08-27T21:48:10.639Z,99.90
2018-08-27T21:50:39.466Z,99.90
2018-08-27T21:53:08.352Z,99.90
2018-08-27T21:55:37.203Z,99.90
2018-08-27T21:58:06.287Z,99.90
2018-08-27T22:00:40.771Z,99.90
2018-08-27T22:03:15.396Z,99.90
2018-08-27T22:05:44.254Z,99.90
2018-08-27T22:08:13.091Z,99.90
2018-08-27T22:10:42.271Z,99.90
2018-08-27T22:13:11.104Z,99.90
2018-08-27T22:15:39.959Z,99.90
2018-08-27T22:18:08.919Z,99.90
2018-08-27T22:20:37.731Z,99.90
2018-08-27T22:23:07.207Z,99.90
2018-08-27T22:25:36.068Z,99.90
2018-08-27T22:28:04.935Z,99.90
2018-08-27T22:30:33.892Z,99.90
2018-08-27T22:33:02.723Z,99.90
2018-08-27T22:35:31.579Z,99.90
2018-08-27T22:38:00.395Z,99.90
2018-08-27T22:40:29.205Z,99.90
2018-08-27T22:42:58.026Z,99.90
2018-08-27T22:45:26.832Z,99.90
2018-08-27T22:47:55.658Z,99.90
2018-08-27T22:50:24.488Z,99.90
2018-08-27T22:52:53.345Z,99.90
2018-08-27T22:55:22.207Z,99.90
2018-08-27T22:57:51.070Z,99.90
2018-08-27T23:00:24.407Z,99.90
2018-08-27T23:02:58.883Z,99.90
2018-08-27T23:05:27.739Z,99.90
2018-08-27T23:07:56.654Z,99.90
2018-08-27T23:10:25.545Z,99.90
2018-08-27T23:12:54.424Z,99.90
2018-08-27T23:15:23.315Z,99.90
2018-08-27T23:17:52.270Z,99.90
2018-08-27T23:20:21.110Z,99.90
2018-08-27T23:22:49.931Z,99.90
2018-08-27T23:25:18.767Z,99.90
2018-08-27T23:29:12.093Z,99.90
2018-08-27T23:31:40.971Z,99.90
2018-08-27T23:34:09.828Z,99.90
2018-08-27T23:36:38.677Z,99.90
2018-08-27T23:39:07.524Z,99.90
2018-08-27T23:41:36.346Z,99.90
2018-08-27T23:44:05.143Z,99.90
2018-08-27T23:46:33.999Z,99.90
2018-08-27T23:49:02.874Z,99.90
2018-08-27T23:51:31.685Z,99.90
2018-08-27T23:54:00.543Z,99.90
2018-08-27T23:56:29.423Z,99.90
2018-08-27T23:58:58.251Z,99.90
